createdAt,value
2018-07-31T00:01:39.484Z,100804.00
2018-07-31T00:04:08.577Z,100811.00
2018-07-31T00:06:37.741Z,100808.00
2018-07-31T00:09:08.535Z,100814.00
2018-07-31T00:11:37.737Z,100805.00
2018-07-31T00:14:06.840Z,100811.00
2018-07-31T00:16:36.015Z,100811.00
2018-07-31T00:19:05.394Z,100810.00
2018-07-31T00:21:34.488Z,100805.00
2018-07-31T00:24:03.615Z,100806.00
2018-07-31T00:26:32.679Z,100814.00
2018-07-31T00:29:01.815Z,100808.00
2018-07-31T00:31:30.995Z,100800.00
2018-07-31T00:34:00.192Z,100805.00
2018-07-31T00:36:29.335Z,100805.00
2018-07-31T00:38:58.521Z,100803.00
2018-07-31T00:41:27.592Z,100802.00
2018-07-31T00:43:56.676Z,100798.00
2018-07-31T00:46:25.816Z,100804.00
2018-07-31T00:48:54.945Z,100799.00
2018-07-31T00:51:24.229Z,100798.00
2018-07-31T00:53:53.736Z,100793.00
2018-07-31T00:56:22.927Z,100789.00
2018-07-31T00:58:52.319Z,100786.00
2018-07-31T01:01:21.414Z,100786.00
2018-07-31T01:03:50.572Z,100780.00
2018-07-31T01:06:23.802Z,100780.00
2018-07-31T01:08:52.920Z,100776.00
2018-07-31T01:11:22.016Z,100786.00
2018-07-31T01:13:51.228Z,100781.00
2018-07-31T01:16:20.362Z,100786.00
2018-07-31T01:18:49.946Z,100782.00
2018-07-31T01:21:19.004Z,100775.00
2018-07-31T01:23:48.085Z,100777.00
2018-07-31T01:26:17.148Z,100776.00
2018-07-31T01:28:46.228Z,100773.00
2018-07-31T01:31:15.293Z,100770.00
2018-07-31T01:33:44.382Z,100760.00
2018-07-31T01:36:15.292Z,100770.00
2018-07-31T01:38:44.197Z,100760.00
2018-07-31T01:41:13.315Z,100755.00
2018-07-31T01:43:42.498Z,100754.00
2018-07-31T01:46:11.646Z,100754.00
2018-07-31T01:48:40.787Z,100756.00
2018-07-31T01:51:10.018Z,100758.00
2018-07-31T01:53:39.253Z,100755.00
2018-07-31T01:56:08.386Z,100754.00
2018-07-31T01:58:37.522Z,100747.00
2018-07-31T02:01:06.858Z,100748.00
2018-07-31T02:03:36.094Z,100741.00
2018-07-31T02:06:05.189Z,100736.00
2018-07-31T02:08:34.478Z,100736.00
2018-07-31T02:11:03.617Z,100738.00
2018-07-31T02:13:32.700Z,100737.00
2018-07-31T02:16:01.957Z,100733.00
2018-07-31T02:18:31.045Z,100726.00
2018-07-31T02:21:00.291Z,100729.00
2018-07-31T02:23:29.357Z,100737.00
2018-07-31T02:25:58.471Z,100728.00
2018-07-31T02:28:27.579Z,100731.00
2018-07-31T02:30:56.679Z,100722.00
2018-07-31T02:33:25.830Z,100729.00
2018-07-31T02:35:54.916Z,100721.00
2018-07-31T02:38:24.553Z,100723.00
2018-07-31T02:40:53.617Z,100723.00
2018-07-31T02:43:22.736Z,100722.00
2018-07-31T02:45:51.820Z,100715.00
2018-07-31T02:48:20.960Z,100716.00
2018-07-31T02:50:50.130Z,100712.00
2018-07-31T02:53:19.255Z,100717.00
2018-07-31T02:55:49.328Z,100714.00
2018-07-31T02:58:18.658Z,100706.00
2018-07-31T03:00:47.766Z,100714.00
2018-07-31T03:03:16.864Z,100708.00
2018-07-31T03:05:45.967Z,100719.00
2018-07-31T03:08:15.088Z,100709.00
2018-07-31T03:10:44.228Z,100712.00
2018-07-31T03:13:13.366Z,100702.00
2018-07-31T03:15:42.494Z,100710.00
2018-07-31T03:18:11.594Z,100708.00
2018-07-31T03:20:40.706Z,100708.00
2018-07-31T03:23:09.956Z,100700.00
2018-07-31T03:25:39.033Z,100698.00
2018-07-31T03:28:08.142Z,100691.00
2018-07-31T03:30:37.161Z,100701.00
2018-07-31T03:33:06.412Z,100693.00
2018-07-31T03:35:35.523Z,100697.00
2018-07-31T03:38:04.625Z,100706.00
2018-07-31T03:40:33.699Z,100702.00
2018-07-31T03:43:02.817Z,100697.00
2018-07-31T03:45:32.003Z,100691.00
2018-07-31T03:48:01.109Z,100700.00
2018-07-31T03:50:30.236Z,100693.00
2018-07-31T03:53:00.555Z,100699.00
2018-07-31T03:55:29.712Z,100696.00
2018-07-31T03:57:58.869Z,100696.00
2018-07-31T04:00:27.987Z,100697.00
2018-07-31T04:03:05.066Z,100695.00
2018-07-31T04:05:34.255Z,100689.00
2018-07-31T04:08:03.300Z,100685.00
2018-07-31T04:10:32.492Z,100687.00
2018-07-31T04:13:02.202Z,100680.00
2018-07-31T04:15:31.577Z,100691.00
2018-07-31T04:18:00.826Z,100684.00
2018-07-31T04:20:30.079Z,100685.00
2018-07-31T04:22:59.313Z,100679.00
2018-07-31T04:25:28.575Z,100687.00
2018-07-31T04:27:57.616Z,100677.00
2018-07-31T04:30:26.948Z,100679.00
2018-07-31T04:32:56.487Z,100673.00
2018-07-31T04:35:25.531Z,100673.00
2018-07-31T04:37:54.904Z,100672.00
2018-07-31T04:40:23.964Z,100675.00
2018-07-31T04:42:53.042Z,100678.00
2018-07-31T04:45:23.894Z,100683.00
2018-07-31T04:47:54.122Z,100684.00
2018-07-31T04:50:23.199Z,100680.00
2018-07-31T04:52:52.700Z,100680.00
2018-07-31T04:55:21.831Z,100676.00
2018-07-31T04:57:50.959Z,100678.00
2018-07-31T05:00:20.161Z,100686.00
2018-07-31T05:02:49.335Z,100686.00
2018-07-31T05:05:18.405Z,100680.00
2018-07-31T05:07:47.522Z,100685.00
2018-07-31T05:10:16.619Z,100690.00
2018-07-31T05:12:45.744Z,100688.00
2018-07-31T05:15:14.801Z,100690.00
2018-07-31T05:17:43.908Z,100683.00
2018-07-31T05:20:13.005Z,100679.00
2018-07-31T05:22:42.243Z,100678.00
2018-07-31T05:25:11.375Z,100685.00
2018-07-31T05:27:40.558Z,100683.00
2018-07-31T05:30:11.133Z,100686.00
2018-07-31T05:32:40.576Z,100688.00
2018-07-31T05:35:10.507Z,100690.00
2018-07-31T05:37:40.079Z,100690.00
2018-07-31T05:40:09.979Z,100689.00
2018-07-31T05:42:39.565Z,100699.00
2018-07-31T05:45:08.800Z,100692.00
2018-07-31T05:47:38.921Z,100695.00
2018-07-31T05:50:08.773Z,100690.00
2018-07-31T05:52:38.428Z,100698.00
2018-07-31T05:55:07.551Z,100692.00
2018-07-31T05:57:36.535Z,100698.00
2018-07-31T06:00:07.933Z,100693.00
2018-07-31T06:02:37.221Z,100700.00
2018-07-31T06:05:06.445Z,100702.00
2018-07-31T06:07:35.552Z,100700.00
2018-07-31T06:10:06.201Z,100706.00
2018-07-31T06:12:35.414Z,100713.00
2018-07-31T06:15:05.152Z,100711.00
2018-07-31T06:17:34.197Z,100706.00
2018-07-31T06:20:03.593Z,100705.00
2018-07-31T06:22:32.733Z,100710.00
2018-07-31T06:25:01.858Z,100708.00
2018-07-31T06:27:30.983Z,100715.00
2018-07-31T06:30:00.163Z,100721.00
2018-07-31T06:32:29.240Z,100725.00
2018-07-31T06:34:58.359Z,100724.00
2018-07-31T06:37:27.510Z,100728.00
2018-07-31T06:39:56.756Z,100724.00
2018-07-31T06:42:25.871Z,100731.00
2018-07-31T06:44:55.149Z,100729.00
2018-07-31T06:47:24.794Z,100734.00
2018-07-31T06:49:54.154Z,100723.00
2018-07-31T06:52:23.929Z,100730.00
2018-07-31T06:54:53.285Z,100736.00
2018-07-31T06:57:22.604Z,100729.00
2018-07-31T06:59:52.257Z,100728.00
2018-07-31T07:02:21.643Z,100732.00
2018-07-31T07:04:50.881Z,100732.00
2018-07-31T07:07:20.169Z,100731.00
2018-07-31T07:09:49.356Z,100727.00
2018-07-31T07:12:18.434Z,100730.00
2018-07-31T07:14:47.507Z,100733.00
2018-07-31T07:17:16.695Z,100738.00
2018-07-31T07:19:45.775Z,100741.00
2018-07-31T07:22:14.832Z,100746.00
2018-07-31T07:24:44.010Z,100742.00
2018-07-31T07:27:13.073Z,100739.00
2018-07-31T07:29:42.097Z,100736.00
2018-07-31T07:32:11.189Z,100733.00
2018-07-31T07:34:40.382Z,100734.00
2018-07-31T07:37:09.454Z,100734.00
2018-07-31T07:39:38.530Z,100731.00
2018-07-31T07:42:07.699Z,100729.00
2018-07-31T07:44:37.000Z,100724.00
2018-07-31T07:47:06.327Z,100718.00
2018-07-31T07:49:41.740Z,100719.00
2018-07-31T07:52:10.968Z,100719.00
2018-07-31T07:54:40.071Z,100717.00
2018-07-31T07:57:09.209Z,100723.00
2018-07-31T07:59:38.671Z,100714.00
2018-07-31T08:02:07.821Z,100714.00
2018-07-31T08:04:36.983Z,100720.00
2018-07-31T08:07:07.106Z,100716.00
2018-07-31T08:09:36.410Z,100708.00
2018-07-31T08:12:06.430Z,100716.00
2018-07-31T08:14:36.251Z,100705.00
2018-07-31T08:17:05.738Z,100717.00
2018-07-31T08:19:35.403Z,100706.00
2018-07-31T08:22:04.788Z,100706.00
2018-07-31T08:24:33.945Z,100703.00
2018-07-31T08:27:03.147Z,100712.00
2018-07-31T08:29:32.273Z,100715.00
2018-07-31T08:32:01.595Z,100718.00
2018-07-31T08:34:30.697Z,100714.00
2018-07-31T08:36:59.876Z,100715.00
2018-07-31T08:39:29.042Z,100711.00
2018-07-31T08:41:58.204Z,100711.00
2018-07-31T08:44:27.368Z,100711.00
2018-07-31T08:46:56.499Z,100707.00
2018-07-31T08:49:25.572Z,100705.00
2018-07-31T08:51:54.747Z,100709.00
2018-07-31T08:54:23.979Z,100703.00
2018-07-31T08:56:53.209Z,100711.00
2018-07-31T08:59:22.321Z,100704.00
2018-07-31T09:01:51.508Z,100705.00
2018-07-31T09:04:20.662Z,100703.00
2018-07-31T09:06:49.828Z,100704.00
2018-07-31T09:09:19.080Z,100707.00
2018-07-31T09:11:48.274Z,100700.00
2018-07-31T09:14:20.109Z,100706.00
2018-07-31T09:16:49.331Z,100701.00
2018-07-31T09:19:18.818Z,100696.00
2018-07-31T09:21:48.232Z,100703.00
2018-07-31T09:24:17.573Z,100702.00
2018-07-31T09:26:47.450Z,100700.00
2018-07-31T09:29:16.924Z,100696.00
2018-07-31T09:31:46.343Z,100701.00
2018-07-31T09:34:15.649Z,100695.00
2018-07-31T09:36:44.842Z,100700.00
2018-07-31T09:39:13.961Z,100690.00
2018-07-31T09:41:44.169Z,100701.00
2018-07-31T09:44:13.371Z,100703.00
2018-07-31T09:46:42.491Z,100699.00
2018-07-31T09:49:11.566Z,100704.00
2018-07-31T09:51:40.779Z,100678.00
2018-07-31T09:54:09.870Z,100716.00
2018-07-31T09:56:39.305Z,100709.00
2018-07-31T09:59:08.561Z,100706.00
2018-07-31T10:01:37.633Z,100712.00
2018-07-31T10:04:06.871Z,100712.00
2018-07-31T10:06:35.989Z,100709.00
2018-07-31T10:09:08.968Z,100711.00
2018-07-31T10:11:38.930Z,100707.00
2018-07-31T10:14:08.044Z,100708.00
2018-07-31T10:16:37.257Z,100703.00
2018-07-31T10:19:06.709Z,100710.00
2018-07-31T10:21:35.866Z,100709.00
2018-07-31T10:24:05.133Z,100708.00
2018-07-31T10:26:34.174Z,100708.00
2018-07-31T10:29:03.216Z,100708.00
2018-07-31T10:31:32.395Z,100704.00
2018-07-31T10:34:02.049Z,100698.00
2018-07-31T10:36:31.412Z,100699.00
2018-07-31T10:39:01.144Z,100701.00
2018-07-31T10:41:30.804Z,100701.00
2018-07-31T10:44:00.278Z,100701.00
2018-07-31T10:46:30.075Z,100702.00
2018-07-31T10:48:59.748Z,100700.00
2018-07-31T10:51:30.384Z,100706.00
2018-07-31T10:53:59.995Z,100707.00
2018-07-31T10:56:29.493Z,100705.00
2018-07-31T10:58:58.708Z,100712.00
2018-07-31T11:01:27.966Z,100706.00
2018-07-31T11:03:57.216Z,100703.00
2018-07-31T11:06:26.345Z,100696.00
2018-07-31T11:08:55.367Z,100699.00
2018-07-31T11:11:24.468Z,100697.00
2018-07-31T11:13:53.800Z,100696.00
2018-07-31T11:16:22.969Z,100691.00
2018-07-31T11:18:52.030Z,100697.00
2018-07-31T11:21:22.090Z,100699.00
2018-07-31T11:23:51.164Z,100693.00
2018-07-31T11:26:20.432Z,100694.00
2018-07-31T11:28:49.600Z,100695.00
2018-07-31T11:31:18.756Z,100692.00
2018-07-31T11:33:47.921Z,100689.00
2018-07-31T11:36:17.217Z,100686.00
2018-07-31T11:38:46.359Z,100688.00
2018-07-31T11:41:15.513Z,100686.00
2018-07-31T11:43:44.687Z,100687.00
2018-07-31T11:46:13.805Z,100686.00
2018-07-31T11:48:43.161Z,100687.00
2018-07-31T11:51:12.486Z,100687.00
2018-07-31T11:53:41.960Z,100693.00
2018-07-31T11:56:11.491Z,100691.00
2018-07-31T11:58:40.803Z,100689.00
2018-07-31T12:01:10.220Z,100682.00
2018-07-31T12:03:39.404Z,100685.00
2018-07-31T12:06:08.511Z,100686.00
2018-07-31T12:08:38.721Z,100682.00
2018-07-31T12:11:07.917Z,100682.00
2018-07-31T12:13:36.977Z,100685.00
2018-07-31T12:16:06.099Z,100688.00
2018-07-31T12:18:35.279Z,100686.00
2018-07-31T12:21:04.598Z,100690.00
2018-07-31T12:23:33.673Z,100694.00
2018-07-31T12:26:02.809Z,100690.00
2018-07-31T12:28:31.893Z,100691.00
2018-07-31T12:31:01.064Z,100694.00
2018-07-31T12:33:30.205Z,100699.00
2018-07-31T12:35:59.716Z,100703.00
2018-07-31T12:38:29.023Z,100704.00
2018-07-31T12:40:58.026Z,100702.00
2018-07-31T12:43:27.111Z,100702.00
2018-07-31T12:45:56.235Z,100709.00
2018-07-31T12:48:25.277Z,100706.00
2018-07-31T12:50:54.574Z,100708.00
2018-07-31T12:53:24.035Z,100707.00
2018-07-31T12:55:53.268Z,100697.00
2018-07-31T12:58:22.684Z,100698.00
2018-07-31T13:00:52.312Z,100697.00
2018-07-31T13:03:21.805Z,100701.00
2018-07-31T13:05:51.066Z,100699.00
2018-07-31T13:08:20.463Z,100694.00
2018-07-31T13:10:49.660Z,100701.00
2018-07-31T13:13:19.194Z,100695.00
2018-07-31T13:15:48.240Z,100681.00
2018-07-31T13:18:17.479Z,100677.00
2018-07-31T13:20:46.655Z,100689.00
2018-07-31T13:23:15.708Z,100689.00
2018-07-31T13:25:44.835Z,100684.00
2018-07-31T13:28:14.678Z,100688.00
2018-07-31T13:30:44.772Z,100688.00
2018-07-31T13:33:13.891Z,100687.00
2018-07-31T13:35:43.975Z,100685.00
2018-07-31T13:38:13.016Z,100691.00
2018-07-31T13:40:42.129Z,100683.00
2018-07-31T13:43:11.263Z,100690.00
2018-07-31T13:45:40.472Z,100685.00
2018-07-31T13:48:09.568Z,100690.00
2018-07-31T13:50:38.715Z,100682.00
2018-07-31T13:53:08.118Z,100678.00
2018-07-31T13:55:37.298Z,100675.00
2018-07-31T13:58:06.940Z,100671.00
2018-07-31T14:00:36.175Z,100679.00
2018-07-31T14:03:06.011Z,100674.00
2018-07-31T14:05:35.402Z,100672.00
2018-07-31T14:08:04.748Z,100673.00
2018-07-31T14:10:34.274Z,100676.00
2018-07-31T14:13:03.599Z,100667.00
2018-07-31T14:15:33.002Z,100675.00
2018-07-31T14:18:02.297Z,100671.00
2018-07-31T14:20:31.787Z,100665.00
2018-07-31T14:23:01.059Z,100669.00
2018-07-31T14:25:30.196Z,100670.00
2018-07-31T14:27:59.345Z,100672.00
2018-07-31T14:30:28.468Z,100669.00
2018-07-31T14:32:57.610Z,100671.00
2018-07-31T14:35:26.732Z,100676.00
2018-07-31T14:37:55.805Z,100670.00
2018-07-31T14:40:24.915Z,100673.00
2018-07-31T14:42:54.129Z,100672.00
2018-07-31T14:45:23.263Z,100678.00
2018-07-31T14:47:52.490Z,100676.00
2018-07-31T14:50:21.672Z,100676.00
2018-07-31T14:52:50.778Z,100660.00
2018-07-31T14:55:19.893Z,100662.00
2018-07-31T14:57:49.044Z,100665.00
2018-07-31T15:00:18.193Z,100664.00
2018-07-31T15:02:47.406Z,100673.00
2018-07-31T15:05:18.050Z,100674.00
2018-07-31T15:07:47.301Z,100668.00
2018-07-31T15:10:16.601Z,100672.00
2018-07-31T15:12:46.357Z,100673.00
2018-07-31T15:15:15.815Z,100666.00
2018-07-31T15:17:45.066Z,100677.00
2018-07-31T15:20:14.331Z,100682.00
2018-07-31T15:22:43.527Z,100680.00
2018-07-31T15:25:13.840Z,100687.00
2018-07-31T15:27:43.077Z,100677.00
2018-07-31T15:30:12.356Z,100683.00
2018-07-31T15:32:41.500Z,100679.00
2018-07-31T15:35:10.548Z,100679.00
2018-07-31T15:37:39.722Z,100684.00
2018-07-31T15:40:08.818Z,100681.00
2018-07-31T15:42:38.011Z,100678.00
2018-07-31T15:45:07.182Z,100675.00
2018-07-31T15:47:36.312Z,100684.00
2018-07-31T15:50:06.089Z,100678.00
2018-07-31T15:52:35.165Z,100679.00
2018-07-31T15:55:04.350Z,100685.00
2018-07-31T15:57:33.463Z,100679.00
2018-07-31T16:00:02.661Z,100691.00
2018-07-31T16:02:31.764Z,100682.00
2018-07-31T16:05:00.887Z,100683.00
2018-07-31T16:07:29.974Z,100694.00
2018-07-31T16:09:59.088Z,100700.00
2018-07-31T16:12:28.398Z,100703.00
2018-07-31T16:14:57.713Z,100701.00
2018-07-31T16:17:26.856Z,100691.00
2018-07-31T16:19:56.076Z,100707.00
2018-07-31T16:22:26.150Z,100703.00
2018-07-31T16:24:55.918Z,100709.00
2018-07-31T16:27:25.149Z,100712.00
2018-07-31T16:29:54.583Z,100704.00
2018-07-31T16:32:23.979Z,100705.00
2018-07-31T16:34:53.505Z,100703.00
2018-07-31T16:37:22.935Z,100705.00
2018-07-31T16:39:52.384Z,100714.00
2018-07-31T16:42:21.623Z,100715.00
2018-07-31T16:44:50.790Z,100724.00
2018-07-31T16:47:20.266Z,100717.00
2018-07-31T16:49:49.511Z,100727.00
2018-07-31T16:52:18.803Z,100733.00
2018-07-31T16:54:47.899Z,100760.00
2018-07-31T16:57:17.728Z,100768.00
2018-07-31T16:59:46.869Z,100782.00
2018-07-31T17:02:15.994Z,100772.00
2018-07-31T17:04:45.301Z,100790.00
2018-07-31T17:07:14.448Z,100769.00
2018-07-31T17:09:43.531Z,100806.00
2018-07-31T17:12:12.976Z,100824.00
2018-07-31T17:14:42.066Z,100816.00
2018-07-31T17:17:11.510Z,100827.00
2018-07-31T17:19:40.722Z,100845.00
2018-07-31T17:22:09.869Z,100847.00
2018-07-31T17:24:39.024Z,100853.00
2018-07-31T17:27:08.199Z,100862.00
2018-07-31T17:29:39.336Z,100872.00
2018-07-31T17:32:08.541Z,100860.00
2018-07-31T17:34:37.741Z,100866.00
2018-07-31T17:37:08.386Z,100875.00
2018-07-31T17:39:37.634Z,100883.00
2018-07-31T17:42:06.950Z,100866.00
2018-07-31T17:44:36.212Z,100877.00
2018-07-31T17:47:06.396Z,100881.00
2018-07-31T17:49:35.683Z,100885.00
2018-07-31T17:52:05.384Z,100893.00
2018-07-31T17:54:34.530Z,100891.00
2018-07-31T17:57:04.317Z,100890.00
2018-07-31T17:59:33.505Z,100903.00
2018-07-31T18:02:02.767Z,100901.00
2018-07-31T18:04:31.967Z,100907.00
2018-07-31T18:07:01.068Z,100921.00
2018-07-31T18:09:30.164Z,100927.00
2018-07-31T18:11:59.373Z,100956.00
2018-07-31T18:14:28.528Z,100940.00
2018-07-31T18:16:57.633Z,100941.00
2018-07-31T18:19:26.767Z,100938.00
2018-07-31T18:21:56.060Z,100941.00
2018-07-31T18:24:25.251Z,100943.00
2018-07-31T18:26:54.343Z,100942.00
2018-07-31T18:29:23.506Z,100951.00
2018-07-31T18:31:52.773Z,100953.00
2018-07-31T18:34:21.941Z,100957.00
2018-07-31T18:36:51.176Z,100968.00
2018-07-31T18:39:20.506Z,100978.00
2018-07-31T18:41:49.689Z,100985.00
2018-07-31T18:44:18.957Z,100994.00
2018-07-31T18:46:48.642Z,100991.00
2018-07-31T18:49:18.002Z,101006.00
2018-07-31T18:51:48.621Z,100991.00
2018-07-31T18:54:18.234Z,101007.00
2018-07-31T18:56:48.234Z,101023.00
2018-07-31T18:59:17.868Z,101020.00
2018-07-31T19:01:47.203Z,101026.00
2018-07-31T19:04:16.717Z,101012.00
2018-07-31T19:06:46.293Z,101018.00
2018-07-31T19:09:15.786Z,101014.00
2018-07-31T19:11:44.872Z,101017.00
2018-07-31T19:14:14.199Z,101005.00
2018-07-31T19:16:43.387Z,101016.00
2018-07-31T19:19:12.617Z,101016.00
2018-07-31T19:21:41.948Z,101032.00
2018-07-31T19:24:11.347Z,101031.00
2018-07-31T19:26:40.556Z,101022.00
2018-07-31T19:29:10.315Z,101031.00
2018-07-31T19:31:39.515Z,101038.00
2018-07-31T19:34:08.883Z,101038.00
2018-07-31T19:36:38.567Z,101032.00
2018-07-31T19:39:08.642Z,101034.00
2018-07-31T19:41:39.095Z,101041.00
2018-07-31T19:44:08.822Z,101049.00
2018-07-31T19:46:37.982Z,101041.00
2018-07-31T19:49:07.232Z,101055.00
2018-07-31T19:51:36.424Z,101046.00
2018-07-31T19:54:05.773Z,101048.00
2018-07-31T19:56:34.987Z,101054.00
2018-07-31T19:59:04.629Z,101049.00
2018-07-31T20:01:33.929Z,101049.00
2018-07-31T20:04:03.388Z,101060.00
2018-07-31T20:06:32.799Z,101059.00
2018-07-31T20:09:02.617Z,101073.00
2018-07-31T20:11:32.049Z,101062.00
2018-07-31T20:14:01.570Z,101078.00
2018-07-31T20:16:31.133Z,101068.00
2018-07-31T20:19:00.891Z,101074.00
2018-07-31T20:21:30.269Z,101075.00
2018-07-31T20:24:00.040Z,101079.00
2018-07-31T20:26:29.456Z,101083.00
2018-07-31T20:28:58.743Z,101089.00
2018-07-31T20:31:27.969Z,101089.00
2018-07-31T20:33:57.133Z,101094.00
2018-07-31T20:36:26.652Z,101108.00
2018-07-31T20:38:55.859Z,101109.00
2018-07-31T20:41:25.527Z,101108.00
2018-07-31T20:43:54.736Z,101113.00
2018-07-31T20:46:24.032Z,101115.00
2018-07-31T20:48:53.168Z,101126.00
2018-07-31T20:51:22.282Z,101135.00
2018-07-31T20:53:51.412Z,101143.00
2018-07-31T20:56:20.842Z,101146.00
2018-07-31T20:58:49.960Z,101151.00
2018-07-31T21:01:19.619Z,101157.00
2018-07-31T21:03:48.807Z,101164.00
2018-07-31T21:06:18.068Z,101161.00
2018-07-31T21:08:47.242Z,101152.00
2018-07-31T21:11:16.617Z,101163.00
2018-07-31T21:13:45.881Z,101164.00
2018-07-31T21:16:15.238Z,101158.00
2018-07-31T21:18:44.706Z,101158.00
2018-07-31T21:21:14.299Z,101166.00
2018-07-31T21:23:43.594Z,101173.00
2018-07-31T21:26:13.062Z,101173.00
2018-07-31T21:28:42.390Z,101174.00
2018-07-31T21:31:32.474Z,101180.00
2018-07-31T21:34:06.860Z,101173.00
2018-07-31T21:36:37.161Z,101182.00
2018-07-31T21:39:10.458Z,101194.00
2018-07-31T21:41:39.987Z,101193.00
2018-07-31T21:44:09.151Z,101199.00
2018-07-31T21:46:38.305Z,101188.00
2018-07-31T21:49:07.719Z,101192.00
2018-07-31T21:51:36.899Z,101201.00
2018-07-31T21:54:06.040Z,101199.00
2018-07-31T21:56:35.100Z,101207.00
2018-07-31T21:59:04.244Z,101207.00
2018-07-31T22:01:33.342Z,101198.00
2018-07-31T22:04:02.393Z,101195.00
2018-07-31T22:06:31.536Z,101188.00
2018-07-31T22:09:00.767Z,101185.00
2018-07-31T22:11:29.821Z,101184.00
2018-07-31T22:13:58.899Z,101189.00
2018-07-31T22:16:28.072Z,101186.00
2018-07-31T22:18:57.352Z,101194.00
2018-07-31T22:21:26.634Z,101197.00
2018-07-31T22:23:55.839Z,101213.00
2018-07-31T22:26:25.063Z,101225.00
2018-07-31T22:28:54.295Z,101225.00
2018-07-31T22:31:23.584Z,101223.00
2018-07-31T22:33:53.139Z,101226.00
2018-07-31T22:36:22.434Z,101224.00
2018-07-31T22:38:51.667Z,101213.00
2018-07-31T22:41:20.815Z,101216.00
2018-07-31T22:43:50.016Z,101229.00
2018-07-31T22:46:19.075Z,101227.00
2018-07-31T22:48:48.187Z,101216.00
2018-07-31T22:51:17.328Z,101207.00
2018-07-31T22:53:46.372Z,101207.00
2018-07-31T22:56:15.473Z,101215.00
2018-07-31T22:58:44.505Z,101219.00
2018-07-31T23:01:13.570Z,101220.00
2018-07-31T23:03:44.405Z,101209.00
2018-07-31T23:06:13.498Z,101213.00
2018-07-31T23:08:42.552Z,101217.00
2018-07-31T23:11:11.609Z,101213.00
2018-07-31T23:13:40.677Z,101213.00
2018-07-31T23:16:09.777Z,101213.00
2018-07-31T23:18:38.829Z,101216.00
2018-07-31T23:21:07.928Z,101222.00
2018-07-31T23:23:37.004Z,101212.00
2018-07-31T23:26:06.360Z,101215.00
2018-07-31T23:28:35.446Z,101220.00
2018-07-31T23:31:04.508Z,101221.00
2018-07-31T23:33:33.629Z,101214.00
2018-07-31T23:36:02.863Z,101213.00
2018-07-31T23:38:31.920Z,101221.00
2018-07-31T23:41:01.139Z,101216.00
2018-07-31T23:43:30.203Z,101216.00
2018-07-31T23:45:59.272Z,101223.00
2018-07-31T23:48:28.352Z,101226.00
2018-07-31T23:50:57.450Z,101229.00
2018-07-31T23:53:26.513Z,101224.00
2018-07-31T23:55:55.586Z,101212.00
2018-07-31T23:58:24.671Z,101217.00
